createdAt,value
2023-09-11T00:00:00.608Z,100.0
2023-09-11T00:10:00.624Z,100.0
2023-09-11T00:20:00.780Z,100.0
2023-09-11T00:30:00.710Z,100.0
2023-09-11T00:40:00.625Z,100.0
2023-09-11T00:50:00.716Z,100.0
2023-09-11T01:00:00.647Z,100.0
2023-09-11T01:10:00.609Z,100.0
2023-09-11T01:20:00.692Z,100.0
2023-09-11T01:30:00.618Z,100.0
2023-09-11T01:40:00.600Z,100.0
2023-09-11T01:50:00.593Z,100.0
2023-09-11T02:00:00.639Z,100.0
2023-09-11T02:10:00.606Z,100.0
2023-09-11T02:20:00.794Z,100.0
2023-09-11T02:30:00.671Z,100.0
2023-09-11T02:40:00.603Z,100.0
2023-09-11T02:50:00.783Z,100.0
2023-09-11T03:00:00.700Z,100.0
2023-09-11T03:10:00.636Z,100.0
2023-09-11T03:20:00.857Z,100.0
2023-09-11T03:30:00.722Z,100.0
2023-09-11T03:40:00.627Z,100.0
2023-09-11T03:50:01.221Z,100.0
2023-09-11T04:00:00.689Z,100.0
2023-09-11T04:10:00.630Z,100.0
2023-09-11T04:20:00.695Z,100.0
2023-09-11T04:30:00.703Z,100.0
2023-09-11T04:40:00.625Z,100.0
2023-09-11T04:50:00.770Z,100.0
2023-09-11T05:00:00.691Z,100.0
2023-09-11T05:10:00.640Z,100.0
2023-09-11T05:20:00.815Z,100.0
2023-09-11T05:30:00.739Z,100.0
2023-09-11T05:40:00.606Z,100.0
2023-09-11T05:50:00.742Z,100.0
2023-09-11T06:00:00.806Z,100.0
2023-09-11T06:10:01.097Z,100.0
2023-09-11T06:20:00.988Z,100.0
2023-09-11T06:30:00.653Z,100.0
2023-09-11T06:40:00.804Z,100.0
2023-09-11T06:50:01.177Z,100.0
2023-09-11T07:00:00.692Z,100.0
2023-09-11T07:10:00.641Z,100.0
2023-09-11T07:20:01.085Z,100.0
2023-09-11T07:30:00.896Z,100.0
2023-09-11T07:40:00.709Z,100.0
2023-09-11T07:50:00.722Z,100.0
2023-09-11T08:00:00.607Z,100.0
2023-09-11T08:10:00.635Z,100.0
2023-09-11T08:20:00.747Z,100.0
2023-09-11T08:30:00.674Z,100.0
2023-09-11T08:40:01.023Z,100.0
2023-09-11T08:50:00.922Z,100.0
2023-09-11T09:00:00.738Z,100.0
2023-09-11T09:10:00.614Z,100.0
2023-09-11T09:20:00.895Z,100.0
2023-09-11T09:30:00.720Z,100.0
2023-09-11T09:40:00.734Z,100.0
2023-09-11T09:50:00.792Z,100.0
2023-09-11T10:00:00.831Z,100.0
2023-09-11T10:10:00.857Z,100.0
2023-09-11T10:20:00.930Z,98.6
2023-09-11T10:30:00.934Z,100.0
2023-09-11T10:40:00.862Z,91.5
2023-09-11T10:50:00.842Z,98.5
2023-09-11T11:00:00.937Z,92.7
2023-09-11T11:10:01.028Z,92.7
2023-09-11T11:20:00.797Z,93.4
2023-09-11T11:30:00.648Z,88.2
2023-09-11T11:40:00.611Z,93.3
2023-09-11T11:50:00.805Z,92.3
2023-09-11T12:00:00.712Z,96.8
2023-09-11T12:10:00.607Z,92.6
2023-09-11T12:20:00.789Z,100.0
2023-09-11T12:30:00.654Z,100.0
2023-09-11T12:40:00.849Z,100.0
2023-09-11T12:50:00.901Z,98.7
2023-09-11T13:00:01.021Z,100.0
2023-09-11T13:10:00.876Z,100.0
2023-09-11T13:20:01.070Z,100.0
2023-09-11T13:30:00.885Z,100.0
2023-09-11T13:40:00.929Z,100.0
2023-09-11T13:50:00.752Z,100.0
2023-09-11T14:00:00.999Z,100.0
2023-09-11T14:10:00.832Z,100.0
2023-09-11T14:20:00.862Z,100.0
2023-09-11T14:30:00.889Z,100.0
2023-09-11T14:40:00.696Z,100.0
2023-09-11T14:50:00.603Z,99.7
2023-09-11T15:00:01.199Z,100.0
2023-09-11T15:10:00.602Z,100.0
2023-09-11T15:20:00.768Z,100.0
2023-09-11T15:30:00.848Z,100.0
2023-09-11T15:40:00.606Z,100.0
2023-09-11T15:50:00.826Z,100.0
2023-09-11T16:00:00.674Z,100.0
2023-09-11T16:10:00.604Z,100.0
2023-09-11T16:20:00.800Z,100.0
2023-09-11T16:30:00.635Z,100.0
2023-09-11T16:40:00.663Z,100.0
2023-09-11T16:50:00.603Z,100.0
2023-09-11T17:00:00.795Z,100.0
2023-09-11T17:10:00.721Z,100.0
2023-09-11T17:20:00.616Z,100.0
2023-09-11T17:30:00.788Z,100.0
2023-09-11T17:40:00.598Z,100.0
2023-09-11T17:50:00.704Z,100.0
2023-09-11T18:00:00.769Z,100.0
2023-09-11T18:10:00.651Z,100.0
2023-09-11T18:20:00.860Z,100.0
2023-09-11T18:30:00.742Z,100.0
2023-09-11T18:40:00.634Z,100.0
2023-09-11T18:50:00.757Z,100.0
2023-09-11T19:00:00.657Z,100.0
2023-09-11T19:10:00.613Z,100.0
2023-09-11T19:20:00.594Z,100.0
2023-09-11T19:30:00.780Z,100.0
2023-09-11T19:40:00.897Z,100.0
2023-09-11T19:50:00.806Z,100.0
2023-09-11T20:00:00.676Z,100.0
2023-09-11T20:10:00.614Z,100.0
2023-09-11T20:20:00.782Z,100.0
2023-09-11T20:30:00.675Z,100.0
2023-09-11T20:40:00.904Z,100.0
2023-09-11T20:50:00.855Z,100.0
2023-09-11T21:00:00.707Z,100.0
2023-09-11T21:10:00.777Z,100.0
2023-09-11T21:20:00.597Z,100.0
2023-09-11T21:30:00.800Z,100.0
2023-09-11T21:40:00.792Z,100.0
2023-09-11T21:50:00.969Z,100.0
2023-09-11T22:00:00.955Z,100.0
2023-09-11T22:10:00.821Z,100.0
2023-09-11T22:20:02.409Z,100.0
2023-09-11T22:30:03.497Z,100.0
2023-09-11T22:40:00.606Z,100.0
2023-09-11T22:50:00.853Z,100.0
2023-09-11T23:00:00.672Z,100.0
2023-09-11T23:10:00.854Z,100.0
2023-09-11T23:20:00.914Z,100.0
2023-09-11T23:30:01.093Z,100.0
2023-09-11T23:40:00.601Z,100.0
2023-09-11T23:50:00.869Z,100.0
